Impacts METAR Board INFO
IDs:

KMEM - Memphis Intl, TN, US

Updated at: 1958 UTC 12 Dec 2017
Potential Impact None Slight Moderate High
Time12/07Z 12/08Z 12/09Z 12/10Z 12/11Z 12/12Z 12/13Z 12/14Z 12/15Z 12/16Z 12/17Z 12/18Z 12/19Z
VIS10 10 10 10 10 10 10 10 10 10 10 10 10
CIG150 180 -- -- -- 44 -- -- -- -- -- -- --
CoverOVCBKNCLRFEWFEWBKNSCTFEWCLRFEWCLRCLRCLR
FltCatVFRVFRVFRVFRVFRVFRVFRVFRVFRVFRVFRVFRVFR
WX--------------------------
WDir330330320320320320300320340330320350330
WSpd10 12 12 12 9 10 8 10 13 12 13 13 10
WGst-- 20 19 -- -- -- -- -- 25 23 19 20 --
Raw hourly METARs
KMEM 120654Z 33010KT 10SM OVC150 11/M03 A3001 RMK AO2 SLP162 T01061028
KMEM 120754Z 33012G20KT 10SM BKN180 10/M02 A3003 RMK AO2 SLP169 T01001017
KMEM 120854Z 32012G19KT 10SM CLR 09/M01 A3005 RMK AO2 SLP174 T00891006 51016
KMEM 120954Z 32012KT 10SM FEW100 07/00 A3006 RMK AO2 SLP176 T00720000
KMEM 121054Z 32009KT 10SM FEW055 07/00 A3007 RMK AO2 SLP182 T00670000
KMEM 121154Z 32010KT 10SM BKN044 06/00 A3010 RMK AO2 SLP194 T00610000 10106 20061 53019
KMEM 121254Z 30008KT 10SM SCT046 06/00 A3014 RMK AO2 SLP206 T00560000
KMEM 121354Z 32010KT 10SM FEW047 06/00 A3016 RMK AO2 SLP214 T00610000
KMEM 121454Z 34013G25KT 10SM CLR 07/M01 A3019 RMK AO2 SLP222 T00721011 51028
KMEM 121554Z 33012G23KT 10SM FEW050 08/M02 A3022 RMK AO2 SLP233 T00781017
KMEM 121654Z 32013G19KT 10SM CLR 08/M02 A3022 RMK AO2 SLP232 T00831022
KMEM 121754Z 35013G20KT 10SM CLR 09/M03 A3020 RMK AO2 SLP225 T00891028 10089 20050 50003
KMEM 121854Z 33010KT 10SM CLR 09/M03 A3018 RMK AO2 SLP219 T00941028